createdAt,value
2022-08-26T00:01:24.266Z,99210.69
2022-08-26T00:03:56.730Z,99215.53
2022-08-26T00:06:24.896Z,99211.06
2022-08-26T00:08:51.438Z,99212.06
2022-08-26T00:11:26.409Z,99212.06
2022-08-26T00:13:54.101Z,99207.59
2022-08-26T00:16:21.067Z,99205.88
2022-08-26T00:18:47.479Z,99203.16
2022-08-26T00:21:13.964Z,99206.91
2022-08-26T00:23:40.728Z,99206.00
2022-08-26T00:26:08.357Z,99205.38
2022-08-26T00:28:37.735Z,99204.03
2022-08-26T00:31:04.513Z,99203.41
2022-08-26T00:33:33.405Z,99206.50
2022-08-26T00:36:01.678Z,99204.75
2022-08-26T00:38:29.100Z,99207.75
2022-08-26T00:40:56.787Z,99203.44
2022-08-26T00:43:24.252Z,99205.41
2022-08-26T00:46:02.996Z,99200.25
2022-08-26T00:48:31.820Z,99199.50
2022-08-26T00:51:02.564Z,99196.91
2022-08-26T00:53:32.331Z,99196.91
2022-08-26T00:56:04.470Z,99200.03
2022-08-26T00:58:32.034Z,99202.38
2022-08-26T01:00:58.519Z,99195.19
2022-08-26T01:03:25.984Z,99196.03
2022-08-26T01:05:55.288Z,99191.47
2022-08-26T01:08:23.165Z,99190.50
2022-08-26T01:10:52.397Z,99187.88
2022-08-26T01:13:23.188Z,99183.69
2022-08-26T01:15:55.904Z,99186.78
2022-08-26T01:18:22.906Z,99182.34
2022-08-26T01:20:58.203Z,99185.94
2022-08-26T01:23:28.347Z,99182.34
2022-08-26T01:25:59.423Z,99176.06
2022-08-26T01:28:28.898Z,99188.06
2022-08-26T01:30:57.274Z,99181.03
2022-08-26T01:33:29.710Z,99186.69
2022-08-26T01:36:06.479Z,99181.53
2022-08-26T01:38:33.203Z,99190.53
2022-08-26T01:41:00.683Z,99180.53
2022-08-26T01:43:29.441Z,99185.22
2022-08-26T01:45:57.131Z,99186.22
2022-08-26T01:48:26.475Z,99191.66
2022-08-26T01:50:53.782Z,99182.78
2022-08-26T01:53:22.335Z,99191.94
2022-08-26T01:55:51.372Z,99179.19
2022-08-26T01:58:24.488Z,99188.34
2022-08-26T02:00:51.837Z,99185.75
2022-08-26T02:03:21.736Z,99180.69
2022-08-26T02:05:53.327Z,99182.78
2022-08-26T02:08:40.098Z,99183.06
2022-08-26T02:11:06.881Z,99178.75
2022-08-26T02:13:34.790Z,99183.56
2022-08-26T02:16:03.491Z,99182.69
2022-08-26T02:18:33.289Z,99183.09
2022-08-26T02:21:00.490Z,99184.91
2022-08-26T02:23:26.970Z,99186.78
2022-08-26T02:26:03.427Z,99186.91
2022-08-26T02:28:34.251Z,99186.03
2022-08-26T02:31:00.756Z,99185.31
2022-08-26T02:33:29.606Z,99185.41
2022-08-26T02:35:56.212Z,99176.41
2022-08-26T02:38:23.396Z,99185.56
2022-08-26T02:40:50.218Z,99187.28
2022-08-26T02:43:17.564Z,99190.00
2022-08-26T02:45:44.371Z,99182.84
2022-08-26T02:48:13.084Z,99177.41
2022-08-26T02:50:40.644Z,99180.13
2022-08-26T02:53:09.823Z,99176.41
2022-08-26T02:55:36.872Z,99180.63
2022-08-26T02:58:03.627Z,99178.25
2022-08-26T03:00:31.422Z,99174.19
2022-08-26T03:02:58.487Z,99175.41
2022-08-26T03:05:25.190Z,99170.34
2022-08-26T03:07:51.792Z,99181.59
2022-08-26T03:10:18.568Z,99179.38
2022-08-26T03:12:48.161Z,99175.78
2022-08-26T03:15:17.606Z,99176.66
2022-08-26T03:17:45.604Z,99175.66
2022-08-26T03:20:12.063Z,99169.25
2022-08-26T03:22:40.294Z,99166.41
2022-08-26T03:25:09.297Z,99159.84
2022-08-26T03:27:36.021Z,99157.00
2022-08-26T03:30:21.401Z,99154.28
2022-08-26T03:32:47.844Z,99152.44
2022-08-26T03:35:14.972Z,99150.44
2022-08-26T03:37:41.406Z,99152.56
2022-08-26T03:40:10.507Z,99152.69
2022-08-26T03:42:41.372Z,99152.31
2022-08-26T03:45:12.609Z,99157.75
2022-08-26T03:47:39.777Z,99151.44
2022-08-26T03:50:07.169Z,99156.16
2022-08-26T03:52:34.117Z,99153.44
2022-08-26T03:55:00.524Z,99156.88
2022-08-26T03:57:27.185Z,99165.03
2022-08-26T03:59:54.518Z,99151.34
2022-08-26T04:02:20.958Z,99151.34
2022-08-26T04:04:47.553Z,99151.34
2022-08-26T04:07:14.123Z,99149.47
2022-08-26T04:09:41.641Z,99152.94
2022-08-26T04:12:08.271Z,99153.44
2022-08-26T04:14:38.227Z,99149.63
2022-08-26T04:17:05.599Z,99151.72
2022-08-26T04:19:33.540Z,99149.59
2022-08-26T04:21:59.996Z,99152.78
2022-08-26T04:24:27.852Z,99148.25
2022-08-26T04:26:56.567Z,99153.78
2022-08-26T04:29:25.425Z,99152.91
2022-08-26T04:31:55.567Z,99152.06
2022-08-26T04:34:27.289Z,99149.44
2022-08-26T04:36:56.163Z,99153.03
2022-08-26T04:39:22.633Z,99153.91
2022-08-26T04:41:50.300Z,99153.91
2022-08-26T04:44:17.945Z,99157.50
2022-08-26T04:46:44.690Z,99153.78
2022-08-26T04:49:11.445Z,99151.09
2022-08-26T04:51:38.018Z,99149.22
2022-08-26T04:54:07.014Z,99150.06
2022-08-26T04:56:35.490Z,99149.97
2022-08-26T04:59:03.014Z,99150.69
2022-08-26T05:01:31.720Z,99156.03
2022-08-26T05:03:58.508Z,99150.47
2022-08-26T05:06:26.164Z,99155.63
2022-08-26T05:08:53.089Z,99156.25
2022-08-26T05:11:20.366Z,99144.28
2022-08-26T05:13:49.065Z,99150.34
2022-08-26T05:16:16.857Z,99146.28
2022-08-26T05:18:45.037Z,99148.50
2022-08-26T05:21:30.796Z,99149.84
2022-08-26T05:23:57.256Z,99153.91
2022-08-26T05:26:24.775Z,99153.41
2022-08-26T05:28:54.721Z,99151.97
2022-08-26T05:31:29.145Z,99146.75
2022-08-26T05:33:57.590Z,99148.72
2022-08-26T05:36:26.864Z,99156.25
2022-08-26T05:38:53.564Z,99151.03
2022-08-26T05:41:23.011Z,99158.41
2022-08-26T05:43:49.420Z,99151.75
2022-08-26T05:46:16.275Z,99157.78
2022-08-26T05:48:44.412Z,99157.53
2022-08-26T05:51:11.792Z,99156.53
2022-08-26T05:53:38.918Z,99155.13
2022-08-26T05:56:06.193Z,99163.06
2022-08-26T05:58:34.393Z,99161.78
2022-08-26T06:01:04.283Z,99164.88
2022-08-26T06:03:31.923Z,99164.09
2022-08-26T06:05:58.323Z,99161.34
2022-08-26T06:08:24.837Z,99166.47
2022-08-26T06:10:56.912Z,99166.69
2022-08-26T06:13:31.869Z,99161.56
2022-08-26T06:15:59.286Z,99154.81
2022-08-26T06:18:35.420Z,99161.47
2022-08-26T06:21:12.998Z,99159.81
2022-08-26T06:23:59.812Z,99159.25
2022-08-26T06:26:27.176Z,99163.19
2022-08-26T06:28:55.428Z,99155.31
2022-08-26T06:31:23.021Z,99167.41
2022-08-26T06:33:50.676Z,99165.84
2022-08-26T06:36:25.244Z,99155.28
2022-08-26T06:38:52.387Z,99166.41
2022-08-26T06:41:21.135Z,99158.53
2022-08-26T06:43:47.817Z,99156.72
2022-08-26T06:46:16.610Z,99168.50
2022-08-26T06:48:43.764Z,99157.44
2022-08-26T06:51:13.081Z,99160.91
2022-08-26T06:53:41.110Z,99151.00
2022-08-26T06:56:10.091Z,99152.44
2022-08-26T06:58:38.258Z,99151.31
2022-08-26T07:01:24.713Z,99158.97
2022-08-26T07:03:52.001Z,99152.94
2022-08-26T07:06:20.750Z,99145.72
2022-08-26T07:08:47.701Z,99147.13
2022-08-26T07:11:14.491Z,99156.44
2022-08-26T07:13:41.035Z,99149.66
2022-08-26T07:16:14.101Z,99153.34
2022-08-26T07:18:44.916Z,99153.44
2022-08-26T07:21:13.948Z,99149.84
2022-08-26T07:23:41.352Z,99154.66
2022-08-26T07:26:10.285Z,99145.78
2022-08-26T07:28:37.098Z,99141.19
2022-08-26T07:31:09.653Z,99141.69
2022-08-26T07:33:37.032Z,99145.81
2022-08-26T07:36:04.200Z,99138.53
2022-08-26T07:38:30.791Z,99138.31
2022-08-26T07:41:00.419Z,99137.16
2022-08-26T07:43:30.366Z,99137.75
2022-08-26T07:46:00.917Z,99138.63
2022-08-26T07:48:28.316Z,99139.59
2022-08-26T07:50:57.855Z,99141.03
2022-08-26T07:53:24.404Z,99134.34
2022-08-26T07:55:51.209Z,99133.69
2022-08-26T07:58:18.758Z,99136.81
2022-08-26T08:00:45.401Z,99128.56
2022-08-26T08:03:12.695Z,99121.91
2022-08-26T08:05:41.252Z,99126.38
2022-08-26T08:08:26.648Z,99127.78
2022-08-26T08:10:55.262Z,99121.59
2022-08-26T08:13:23.003Z,99124.00
2022-08-26T08:15:50.341Z,99127.78
2022-08-26T08:18:17.231Z,99119.38
2022-08-26T08:20:47.634Z,99116.44
2022-08-26T08:23:31.583Z,99115.91
2022-08-26T08:26:05.438Z,99110.91
2022-08-26T08:28:32.139Z,99110.75
2022-08-26T08:30:59.068Z,99103.53
2022-08-26T08:33:26.202Z,99106.75
2022-08-26T08:35:52.690Z,99101.41
2022-08-26T08:38:19.121Z,99096.50
2022-08-26T08:40:45.987Z,99094.63
2022-08-26T08:43:14.459Z,99090.44
2022-08-26T08:45:41.964Z,99098.78
2022-08-26T08:48:11.824Z,99091.06
2022-08-26T08:50:49.100Z,99093.28
2022-08-26T08:53:30.487Z,99087.03
2022-08-26T08:56:00.784Z,99087.28
2022-08-26T08:58:40.250Z,99072.53
2022-08-26T09:01:09.753Z,99067.53
2022-08-26T09:03:50.476Z,99069.44
2022-08-26T09:06:18.734Z,99080.63
2022-08-26T09:08:46.875Z,99071.72
2022-08-26T09:11:17.712Z,99076.44
2022-08-26T09:13:45.131Z,99076.59
2022-08-26T09:16:16.013Z,99068.69
2022-08-26T09:18:48.769Z,99064.41
2022-08-26T09:21:17.837Z,99061.25
2022-08-26T09:23:47.007Z,99054.91
2022-08-26T09:26:21.402Z,99058.22
2022-08-26T09:28:56.167Z,99066.19
2022-08-26T09:31:34.274Z,99060.22
2022-08-26T09:34:04.745Z,99063.06
2022-08-26T09:36:39.528Z,99065.00
2022-08-26T09:39:27.608Z,99055.94
2022-08-26T09:42:04.871Z,99052.84
2022-08-26T09:44:31.691Z,99059.59
2022-08-26T09:47:01.665Z,99066.81
2022-08-26T09:49:36.285Z,99067.00
2022-08-26T09:52:07.805Z,99068.56
2022-08-26T09:54:35.197Z,99069.13
2022-08-26T09:57:16.904Z,99071.78
2022-08-26T09:59:43.768Z,99064.63
2022-08-26T10:02:20.743Z,99067.78
2022-08-26T10:04:55.355Z,99059.72
2022-08-26T10:07:38.846Z,99072.28
2022-08-26T10:10:09.234Z,99068.72
2022-08-26T10:12:39.636Z,99060.41
2022-08-26T10:15:10.815Z,99059.72
2022-08-26T10:17:41.548Z,99065.41
2022-08-26T10:20:22.555Z,99077.16
2022-08-26T10:22:50.153Z,99076.22
2022-08-26T10:25:20.273Z,99071.41
2022-08-26T10:27:53.385Z,99062.44
2022-08-26T10:30:22.496Z,99060.53
2022-08-26T10:32:51.272Z,99062.91
2022-08-26T10:35:19.277Z,99068.25
2022-08-26T10:37:50.929Z,99064.84
2022-08-26T10:40:29.266Z,99049.06
2022-08-26T10:43:08.542Z,99032.66
2022-08-26T10:45:38.839Z,99034.28
2022-08-26T10:48:06.896Z,99041.75
2022-08-26T10:50:35.453Z,99034.41
2022-08-26T10:53:03.724Z,99036.06
2022-08-26T10:55:43.053Z,99028.94
2022-08-26T10:58:13.997Z,99030.75
2022-08-26T11:01:16.819Z,99041.94
2022-08-26T11:03:50.293Z,99025.84
2022-08-26T11:06:19.563Z,99014.06
2022-08-26T11:08:49.978Z,99010.47
2022-08-26T11:11:35.237Z,99019.09
2022-08-26T11:14:05.026Z,99037.34
2022-08-26T11:16:34.615Z,99038.91
2022-08-26T11:19:01.088Z,99030.97
2022-08-26T11:21:47.689Z,99022.94
2022-08-26T11:24:34.372Z,99018.44
2022-08-26T11:27:02.315Z,99012.03
2022-08-26T11:29:56.168Z,99006.31
2022-08-26T11:32:26.914Z,99010.00
2022-08-26T11:34:56.330Z,99012.28
2022-08-26T11:37:26.267Z,99010.03
2022-08-26T11:39:56.882Z,98985.47
2022-08-26T11:42:31.293Z,98978.06
2022-08-26T11:44:58.350Z,98987.31
2022-08-26T11:47:26.749Z,98974.28
2022-08-26T11:50:27.638Z,98964.06
2022-08-26T11:53:01.959Z,98953.81
2022-08-26T11:55:30.270Z,98945.16
2022-08-26T11:57:58.219Z,98950.72
2022-08-26T12:00:27.444Z,98939.00
2022-08-26T12:03:01.996Z,98936.72
2022-08-26T12:05:35.760Z,98942.25
2022-08-26T12:08:08.997Z,98941.41
2022-08-26T12:10:36.577Z,98937.00
2022-08-26T12:13:03.810Z,98929.16
2022-08-26T12:15:32.025Z,98911.66
2022-08-26T12:18:15.879Z,98917.66
2022-08-26T12:20:48.620Z,98916.63
2022-08-26T12:23:21.997Z,98909.38
2022-08-26T12:25:50.021Z,98908.81
2022-08-26T12:28:16.496Z,98901.34
2022-08-26T12:31:04.564Z,98895.94
2022-08-26T12:33:31.947Z,98899.13
2022-08-26T12:36:00.046Z,98903.34
2022-08-26T12:38:26.952Z,98893.19
2022-08-26T12:40:53.677Z,98894.31
2022-08-26T12:43:46.332Z,98895.50
2022-08-26T12:46:16.218Z,98896.88
2022-08-26T12:48:45.767Z,98888.19
2022-08-26T12:51:26.483Z,98890.47
2022-08-26T12:53:53.385Z,98886.78
2022-08-26T12:56:40.118Z,98885.81
2022-08-26T12:59:23.899Z,98898.06
2022-08-26T13:01:51.607Z,98901.66
2022-08-26T13:04:36.569Z,98893.50
2022-08-26T13:07:32.252Z,98890.91
2022-08-26T13:09:58.994Z,98895.38
2022-08-26T13:12:26.856Z,98884.91
2022-08-26T13:14:54.031Z,98883.09
2022-08-26T13:17:21.078Z,98883.06
2022-08-26T13:19:47.664Z,98879.47
2022-08-26T13:22:14.798Z,98870.41
2022-08-26T13:24:42.495Z,98875.94
2022-08-26T13:27:10.361Z,98863.69
2022-08-26T13:29:37.541Z,98866.31
2022-08-26T13:32:05.419Z,98869.00
2022-08-26T13:34:32.550Z,98872.25
2022-08-26T13:36:59.219Z,98872.94
2022-08-26T13:39:26.139Z,98872.63
2022-08-26T13:41:53.192Z,98871.38
2022-08-26T13:44:19.922Z,98871.75
2022-08-26T13:46:46.373Z,98876.31
2022-08-26T13:49:12.901Z,98872.38
2022-08-26T13:51:39.599Z,98865.97
2022-08-26T13:54:06.274Z,98865.66
2022-08-26T13:56:33.011Z,98861.09
2022-08-26T13:58:59.868Z,98858.34
2022-08-26T14:01:27.689Z,98853.63
2022-08-26T14:03:54.246Z,98846.91
2022-08-26T14:06:21.226Z,98845.91
2022-08-26T14:08:48.059Z,98841.38
2022-08-26T14:11:14.719Z,98837.59
2022-08-26T14:13:41.278Z,98832.56
2022-08-26T14:16:09.306Z,98835.03
2022-08-26T14:18:41.838Z,98837.88
2022-08-26T14:21:11.697Z,98849.25
2022-08-26T14:23:38.271Z,98853.97
2022-08-26T14:26:08.237Z,98847.31
2022-08-26T14:28:35.539Z,98842.03
2022-08-26T14:31:02.602Z,98845.34
2022-08-26T14:33:31.203Z,98834.97
2022-08-26T14:36:17.880Z,98839.44
2022-08-26T14:38:46.999Z,98842.53
2022-08-26T14:41:16.708Z,98839.69
2022-08-26T14:43:46.490Z,98840.56
2022-08-26T14:46:14.526Z,98837.34
2022-08-26T14:48:41.152Z,98831.84
2022-08-26T14:51:08.095Z,98833.56
2022-08-26T14:53:53.272Z,98838.22
2022-08-26T14:56:19.823Z,98833.53
2022-08-26T14:58:46.216Z,98828.47
2022-08-26T15:01:13.105Z,98829.69
2022-08-26T15:03:41.258Z,98831.00
2022-08-26T15:06:08.373Z,98827.03
2022-08-26T15:08:36.644Z,98837.22
2022-08-26T15:11:04.184Z,98846.28
2022-08-26T15:13:30.641Z,98854.16
2022-08-26T15:15:57.109Z,98851.59
2022-08-26T15:18:24.747Z,98858.81
2022-08-26T15:20:51.199Z,98857.59
2022-08-26T15:23:17.647Z,98866.63
2022-08-26T15:25:46.999Z,98856.25
2022-08-26T15:28:13.547Z,98839.78
2022-08-26T15:30:40.067Z,98842.44
2022-08-26T15:33:15.301Z,98844.34
2022-08-26T15:35:42.913Z,98847.81
2022-08-26T15:38:09.903Z,98858.50
2022-08-26T15:40:36.560Z,98857.63
2022-08-26T15:43:18.493Z,98865.34
2022-08-26T15:45:50.620Z,98861.38
2022-08-26T15:48:17.025Z,98861.06
2022-08-26T15:50:49.640Z,98874.78
2022-08-26T15:53:16.203Z,98882.91
2022-08-26T15:55:42.597Z,98884.00
2022-08-26T15:58:10.425Z,98884.00
2022-08-26T16:00:37.500Z,98893.84
2022-08-26T16:03:04.152Z,98889.03
2022-08-26T16:05:30.700Z,98881.31
2022-08-26T16:07:57.851Z,98877.81
2022-08-26T16:10:24.916Z,98876.31
2022-08-26T16:12:51.401Z,98878.31
2022-08-26T16:15:18.153Z,98891.00
2022-08-26T16:17:45.542Z,98893.38
2022-08-26T16:20:12.100Z,98895.75
2022-08-26T16:22:38.690Z,98911.38
2022-08-26T16:25:07.424Z,98912.75
2022-08-26T16:27:33.815Z,98909.09
2022-08-26T16:30:00.392Z,98906.69
2022-08-26T16:32:30.765Z,98908.06
2022-08-26T16:34:58.680Z,98912.00
2022-08-26T16:37:25.122Z,98904.88
2022-08-26T16:39:51.758Z,98899.19
2022-08-26T16:42:18.300Z,98893.22
2022-08-26T16:44:44.922Z,98879.25
2022-08-26T16:47:12.647Z,98892.00
2022-08-26T16:49:39.640Z,98884.59
2022-08-26T16:52:06.961Z,98881.81
2022-08-26T16:54:33.776Z,98874.94
2022-08-26T16:57:00.273Z,98863.31
2022-08-26T16:59:26.788Z,98865.03
2022-08-26T17:01:54.514Z,98854.31
2022-08-26T17:04:21.909Z,98858.56
2022-08-26T17:06:48.388Z,98852.00
2022-08-26T17:09:14.778Z,98843.41
2022-08-26T17:11:41.410Z,98842.03
2022-08-26T17:14:10.211Z,98845.31
2022-08-26T17:16:36.775Z,98858.44
2022-08-26T17:19:04.554Z,98854.47
2022-08-26T17:21:32.255Z,98859.38
2022-08-26T17:23:59.282Z,98848.78
2022-08-26T17:26:26.435Z,98846.19
2022-08-26T17:28:53.527Z,98834.56
2022-08-26T17:31:20.650Z,98839.31
2022-08-26T17:33:53.224Z,98843.25
2022-08-26T17:36:20.567Z,98840.50
2022-08-26T17:38:47.021Z,98838.94
2022-08-26T17:41:16.530Z,98826.28
2022-08-26T17:43:42.987Z,98822.00
2022-08-26T17:46:10.332Z,98817.69
2022-08-26T17:48:38.075Z,98809.81
2022-08-26T17:51:08.793Z,98810.31
2022-08-26T17:53:35.520Z,98803.56
2022-08-26T17:56:02.149Z,98798.44
2022-08-26T17:58:28.755Z,98806.22
2022-08-26T18:00:55.894Z,98808.59
2022-08-26T18:03:23.575Z,98824.69
2022-08-26T18:05:51.432Z,98841.38
2022-08-26T18:08:18.262Z,98839.97
2022-08-26T18:10:45.201Z,98847.44
2022-08-26T18:13:11.751Z,98834.28
2022-08-26T18:15:39.209Z,98839.03
2022-08-26T18:18:05.848Z,98846.22
2022-08-26T18:20:32.380Z,98845.50
2022-08-26T18:22:59.118Z,98849.94
2022-08-26T18:25:25.641Z,98840.81
2022-08-26T18:27:52.405Z,98852.59
2022-08-26T18:30:20.774Z,98852.75
2022-08-26T18:32:48.125Z,98850.31
2022-08-26T18:35:14.929Z,98857.81
2022-08-26T18:37:41.425Z,98869.91
2022-08-26T18:40:10.429Z,98876.41
2022-08-26T18:42:36.926Z,98883.72
2022-08-26T18:45:04.389Z,98896.53
2022-08-26T18:47:31.700Z,98903.88
2022-08-26T18:49:58.204Z,98915.66
2022-08-26T18:52:24.861Z,98924.69
2022-08-26T18:54:51.365Z,98913.63
2022-08-26T18:57:17.941Z,98908.28
2022-08-26T18:59:44.478Z,98910.03
2022-08-26T19:02:11.630Z,98906.28
2022-08-26T19:04:41.279Z,98894.50
2022-08-26T19:07:07.705Z,98901.81
2022-08-26T19:09:35.967Z,98896.34
2022-08-26T19:12:03.845Z,98886.75
2022-08-26T19:14:31.643Z,98890.50
2022-08-26T19:16:58.439Z,98885.91
2022-08-26T19:19:25.003Z,98895.25
2022-08-26T19:22:07.560Z,98905.03
2022-08-26T19:24:34.389Z,98892.06
2022-08-26T19:27:01.787Z,98893.78
2022-08-26T19:29:29.850Z,98901.81
2022-08-26T19:31:57.244Z,98909.38
2022-08-26T19:34:24.318Z,98886.91
2022-08-26T19:36:53.115Z,98888.88
2022-08-26T19:39:20.240Z,98888.31
2022-08-26T19:41:46.871Z,98875.69
2022-08-26T19:44:35.069Z,98879.91
2022-08-26T19:47:03.618Z,98870.44
2022-08-26T19:49:30.089Z,98866.13
2022-08-26T19:51:56.682Z,98851.06
2022-08-26T19:54:23.166Z,98847.91
2022-08-26T19:56:49.893Z,98845.91
2022-08-26T19:59:48.363Z,98849.66
2022-08-26T20:02:15.033Z,98846.50
2022-08-26T20:04:41.981Z,98847.81
2022-08-26T20:07:09.153Z,98851.53
2022-08-26T20:09:36.347Z,98857.44
2022-08-26T20:12:05.208Z,98858.44
2022-08-26T20:14:31.939Z,98879.38
2022-08-26T20:16:58.583Z,98893.16
2022-08-26T20:19:43.405Z,98883.97
2022-08-26T20:22:10.444Z,98893.00
2022-08-26T20:24:40.358Z,98899.63
2022-08-26T20:27:08.076Z,98899.19
2022-08-26T20:29:35.184Z,98904.09
2022-08-26T20:32:02.674Z,98903.22
2022-08-26T20:34:29.773Z,98903.09
2022-08-26T20:36:56.331Z,98912.25
2022-08-26T20:39:22.852Z,98912.09
2022-08-26T20:41:49.508Z,98906.66
2022-08-26T20:44:17.610Z,98906.66
2022-08-26T20:46:44.179Z,98904.94
2022-08-26T20:49:10.689Z,98903.09
2022-08-26T20:51:37.785Z,98897.63
2022-08-26T20:54:05.062Z,98891.44
2022-08-26T20:56:31.672Z,98892.31
2022-08-26T20:59:00.448Z,98895.06
2022-08-26T21:01:30.572Z,98890.75
2022-08-26T21:03:57.053Z,98887.72
2022-08-26T21:06:23.672Z,98883.41
2022-08-26T21:08:50.230Z,98885.31
2022-08-26T21:11:18.132Z,98886.41
2022-08-26T21:14:03.881Z,98883.69
2022-08-26T21:16:31.471Z,98892.03
2022-08-26T21:18:58.325Z,98882.28
2022-08-26T21:21:29.832Z,98886.72
2022-08-26T21:23:56.602Z,98881.13
2022-08-26T21:26:23.053Z,98878.41
2022-08-26T21:28:49.609Z,98875.66
2022-08-26T21:31:17.970Z,98878.25
2022-08-26T21:33:44.923Z,98874.81
2022-08-26T21:36:12.015Z,98874.25
2022-08-26T21:38:38.751Z,98873.81
2022-08-26T21:41:07.491Z,98870.94
2022-08-26T21:43:35.499Z,98873.66
2022-08-26T21:46:14.359Z,98867.78
2022-08-26T21:48:48.735Z,98863.91
2022-08-26T21:51:17.837Z,98866.66
2022-08-26T21:53:44.270Z,98862.50
2022-08-26T21:56:12.189Z,98868.06
2022-08-26T21:58:38.950Z,98851.03
2022-08-26T22:01:20.682Z,98854.59
2022-08-26T22:03:47.981Z,98851.41
2022-08-26T22:06:18.160Z,98848.53
2022-08-26T22:08:44.544Z,98846.97
2022-08-26T22:11:11.471Z,98849.84
2022-08-26T22:13:39.178Z,98857.16
2022-08-26T22:16:06.322Z,98848.13
2022-08-26T22:18:32.981Z,98848.44
2022-08-26T22:21:01.244Z,98848.44
2022-08-26T22:23:28.060Z,98854.31
2022-08-26T22:25:54.773Z,98861.75
2022-08-26T22:28:21.682Z,98859.75
2022-08-26T22:30:48.725Z,98859.59
2022-08-26T22:33:16.475Z,98865.78
2022-08-26T22:35:45.095Z,98865.47
2022-08-26T22:38:11.742Z,98871.94
2022-08-26T22:40:38.512Z,98869.34
2022-08-26T22:43:06.013Z,98864.31
2022-08-26T22:45:32.543Z,98863.47
2022-08-26T22:47:59.681Z,98863.63
2022-08-26T22:50:26.305Z,98866.34
2022-08-26T22:52:52.677Z,98862.75
2022-08-26T22:55:19.105Z,98867.34
2022-08-26T22:57:45.477Z,98872.94
2022-08-26T23:00:13.814Z,98868.19
2022-08-26T23:02:40.749Z,98866.47
2022-08-26T23:05:07.687Z,98866.47
2022-08-26T23:07:34.359Z,98862.91
2022-08-26T23:10:01.073Z,98869.78
2022-08-26T23:12:28.026Z,98874.94
2022-08-26T23:14:54.422Z,98885.69
2022-08-26T23:17:21.405Z,98897.00
2022-08-26T23:19:48.351Z,98911.94
2022-08-26T23:22:16.902Z,98911.19
2022-08-26T23:24:43.742Z,98918.81
2022-08-26T23:27:10.227Z,98918.81
2022-08-26T23:29:37.042Z,98918.09
2022-08-26T23:32:05.671Z,98920.66
2022-08-26T23:34:50.860Z,98918.09
2022-08-26T23:37:19.242Z,98906.31
2022-08-26T23:39:46.100Z,98909.91
2022-08-26T23:42:12.944Z,98910.75
2022-08-26T23:44:39.578Z,98910.75
2022-08-26T23:47:06.704Z,98910.75
2022-08-26T23:49:35.749Z,98906.31
2022-08-26T23:52:22.299Z,98909.03
2022-08-26T23:54:49.104Z,98903.59
2022-08-26T23:57:17.017Z,98897.28
2022-08-26T23:59:43.425Z,98905.47
